sensor_id;sensor_type;location;lat;lon;timestamp;temperature;humidity
51579;DHT22;47998;53.242;6.386;2023-08-01T00:00:47;15.60;99.90
51579;DHT22;47998;53.242;6.386;2023-08-01T00:03:13;15.70;99.90
51579;DHT22;47998;53.242;6.386;2023-08-01T00:05:40;15.50;99.90
51579;DHT22;47998;53.242;6.386;2023-08-01T00:08:11;15.60;99.90
51579;DHT22;47998;53.242;6.386;2023-08-01T00:10:38;15.50;99.90
51579;DHT22;47998;53.242;6.386;2023-08-01T00:13:04;15.40;99.90
51579;DHT22;47998;53.242;6.386;2023-08-01T00:15:29;15.50;99.90
51579;DHT22;47998;53.242;6.386;2023-08-01T00:17:55;15.30;99.90
51579;DHT22;47998;53.242;6.386;2023-08-01T00:20:21;15.30;99.90
51579;DHT22;47998;53.242;6.386;2023-08-01T00:22:47;15.30;99.90
51579;DHT22;47998;53.242;6.386;2023-08-01T00:25:13;15.20;99.90
51579;DHT22;47998;53.242;6.386;2023-08-01T00:27:39;15.20;99.90
51579;DHT22;47998;53.242;6.386;2023-08-01T00:30:05;15.20;99.90
51579;DHT22;47998;53.242;6.386;2023-08-01T00:32:31;15.20;99.90
51579;DHT22;47998;53.242;6.386;2023-08-01T00:34:57;15.10;99.90
51579;DHT22;47998;53.242;6.386;2023-08-01T00:37:23;15.10;99.90
51579;DHT22;47998;53.242;6.386;2023-08-01T00:39:48;15.00;99.90
51579;DHT22;47998;53.242;6.386;2023-08-01T00:42:15;15.10;99.90
51579;DHT22;47998;53.242;6.386;2023-08-01T00:44:41;15.10;99.90
51579;DHT22;47998;53.242;6.386;2023-08-01T00:47:09;15.00;99.90
51579;DHT22;47998;53.242;6.386;2023-08-01T00:49:35;15.00;99.90
51579;DHT22;47998;53.242;6.386;2023-08-01T00:52:01;15.00;99.90
51579;DHT22;47998;53.242;6.386;2023-08-01T00:54:27;14.90;99.90
51579;DHT22;47998;53.242;6.386;2023-08-01T00:56:53;15.00;99.90
51579;DHT22;47998;53.242;6.386;2023-08-01T00:59:18;14.90;99.90
51579;DHT22;47998;53.242;6.386;2023-08-01T01:01:44;14.90;99.90
51579;DHT22;47998;53.242;6.386;2023-08-01T01:04:10;14.90;99.90
51579;DHT22;47998;53.242;6.386;2023-08-01T01:09:18;14.80;99.90
51579;DHT22;47998;53.242;6.386;2023-08-01T01:11:44;14.70;99.90
51579;DHT22;47998;53.242;6.386;2023-08-01T01:14:10;14.60;99.90
51579;DHT22;47998;53.242;6.386;2023-08-01T01:16:37;14.60;99.90
51579;DHT22;47998;53.242;6.386;2023-08-01T01:19:07;14.60;99.90
51579;DHT22;47998;53.242;6.386;2023-08-01T01:21:38;14.50;99.90
51579;DHT22;47998;53.242;6.386;2023-08-01T01:24:07;14.60;99.90
51579;DHT22;47998;53.242;6.386;2023-08-01T01:26:34;14.50;99.90
51579;DHT22;47998;53.242;6.386;2023-08-01T01:29:01;14.40;99.90
51579;DHT22;47998;53.242;6.386;2023-08-01T01:31:27;14.50;99.90
51579;DHT22;47998;53.242;6.386;2023-08-01T01:33:54;14.50;99.90
51579;DHT22;47998;53.242;6.386;2023-08-01T01:36:20;14.50;99.90
51579;DHT22;47998;53.242;6.386;2023-08-01T01:38:46;14.50;99.90
51579;DHT22;47998;53.242;6.386;2023-08-01T01:41:12;14.40;99.90
51579;DHT22;47998;53.242;6.386;2023-08-01T01:43:37;14.50;99.90
51579;DHT22;47998;53.242;6.386;2023-08-01T01:46:03;14.60;99.90
51579;DHT22;47998;53.242;6.386;2023-08-01T01:48:29;14.40;99.90
51579;DHT22;47998;53.242;6.386;2023-08-01T01:50:55;14.60;99.90
51579;DHT22;47998;53.242;6.386;2023-08-01T01:53:21;14.30;99.90
51579;DHT22;47998;53.242;6.386;2023-08-01T01:55:46;14.50;99.90
51579;DHT22;47998;53.242;6.386;2023-08-01T01:58:12;14.20;99.90
51579;DHT22;47998;53.242;6.386;2023-08-01T02:00:38;14.50;99.90
51579;DHT22;47998;53.242;6.386;2023-08-01T02:03:03;14.30;99.90
51579;DHT22;47998;53.242;6.386;2023-08-01T02:05:30;14.30;99.90
51579;DHT22;47998;53.242;6.386;2023-08-01T02:07:55;14.40;99.90
51579;DHT22;47998;53.242;6.386;2023-08-01T02:10:21;14.00;99.90
51579;DHT22;47998;53.242;6.386;2023-08-01T02:12:47;14.00;99.90
51579;DHT22;47998;53.242;6.386;2023-08-01T02:15:12;14.20;99.90
51579;DHT22;47998;53.242;6.386;2023-08-01T02:17:39;14.00;99.90
51579;DHT22;47998;53.242;6.386;2023-08-01T02:20:05;13.90;99.90
51579;DHT22;47998;53.242;6.386;2023-08-01T02:22:32;13.90;99.90
51579;DHT22;47998;53.242;6.386;2023-08-01T02:24:58;13.80;99.90
51579;DHT22;47998;53.242;6.386;2023-08-01T02:27:23;13.70;99.90
51579;DHT22;47998;53.242;6.386;2023-08-01T02:29:49;13.80;99.90
51579;DHT22;47998;53.242;6.386;2023-08-01T02:32:18;13.80;99.90
51579;DHT22;47998;53.242;6.386;2023-08-01T02:34:44;13.90;99.90
51579;DHT22;47998;53.242;6.386;2023-08-01T02:37:10;13.80;99.90
51579;DHT22;47998;53.242;6.386;2023-08-01T02:39:35;13.90;99.90
51579;DHT22;47998;53.242;6.386;2023-08-01T02:42:01;13.90;99.90
51579;DHT22;47998;53.242;6.386;2023-08-01T02:44:28;13.80;99.90
51579;DHT22;47998;53.242;6.386;2023-08-01T02:46:54;13.70;99.90
51579;DHT22;47998;53.242;6.386;2023-08-01T02:49:20;13.70;99.90
51579;DHT22;47998;53.242;6.386;2023-08-01T02:51:45;13.60;99.90
51579;DHT22;47998;53.242;6.386;2023-08-01T02:54:11;13.60;99.90
51579;DHT22;47998;53.242;6.386;2023-08-01T02:56:37;13.90;99.90
51579;DHT22;47998;53.242;6.386;2023-08-01T02:59:09;14.10;99.90
51579;DHT22;47998;53.242;6.386;2023-08-01T03:01:37;14.00;99.90
51579;DHT22;47998;53.242;6.386;2023-08-01T03:04:03;13.80;99.90
51579;DHT22;47998;53.242;6.386;2023-08-01T03:06:30;14.30;99.90
51579;DHT22;47998;53.242;6.386;2023-08-01T03:08:56;14.40;99.90
51579;DHT22;47998;53.242;6.386;2023-08-01T03:11:21;14.10;99.90
51579;DHT22;47998;53.242;6.386;2023-08-01T03:13:47;14.30;99.90
51579;DHT22;47998;53.242;6.386;2023-08-01T03:16:13;14.60;99.90
51579;DHT22;47998;53.242;6.386;2023-08-01T03:18:38;14.50;99.90
51579;DHT22;47998;53.242;6.386;2023-08-01T03:21:04;14.10;99.90
51579;DHT22;47998;53.242;6.386;2023-08-01T03:23:30;14.70;99.90
51579;DHT22;47998;53.242;6.386;2023-08-01T03:25:56;14.40;99.90
51579;DHT22;47998;53.242;6.386;2023-08-01T03:28:21;14.90;99.90
51579;DHT22;47998;53.242;6.386;2023-08-01T03:30:47;14.20;99.90
51579;DHT22;47998;53.242;6.386;2023-08-01T03:33:16;14.80;99.90
51579;DHT22;47998;53.242;6.386;2023-08-01T03:35:42;14.70;99.90
51579;DHT22;47998;53.242;6.386;2023-08-01T03:38:07;14.20;99.90
51579;DHT22;47998;53.242;6.386;2023-08-01T03:40:33;14.50;99.90
51579;DHT22;47998;53.242;6.386;2023-08-01T03:42:59;14.90;99.90
51579;DHT22;47998;53.242;6.386;2023-08-01T03:45:25;14.90;99.90
51579;DHT22;47998;53.242;6.386;2023-08-01T03:47:50;14.20;99.90
51579;DHT22;47998;53.242;6.386;2023-08-01T03:50:16;14.90;99.90
51579;DHT22;47998;53.242;6.386;2023-08-01T03:52:42;14.40;99.90
51579;DHT22;47998;53.242;6.386;2023-08-01T03:55:08;14.20;99.90
51579;DHT22;47998;53.242;6.386;2023-08-01T03:57:34;14.20;99.90
51579;DHT22;47998;53.242;6.386;2023-08-01T04:00:00;14.40;99.90
51579;DHT22;47998;53.242;6.386;2023-08-01T04:02:26;14.70;99.90
51579;DHT22;47998;53.242;6.386;2023-08-01T04:04:51;14.60;99.90
51579;DHT22;47998;53.242;6.386;2023-08-01T04:07:18;14.80;99.90
51579;DHT22;47998;53.242;6.386;2023-08-01T04:09:44;14.20;99.90
51579;DHT22;47998;53.242;6.386;2023-08-01T04:12:10;14.20;99.90
51579;DHT22;47998;53.242;6.386;2023-08-01T04:14:35;14.20;99.90
51579;DHT22;47998;53.242;6.386;2023-08-01T04:17:01;14.60;99.90
51579;DHT22;47998;53.242;6.386;2023-08-01T04:19:27;14.30;99.90
51579;DHT22;47998;53.242;6.386;2023-08-01T04:21:52;14.70;99.90
51579;DHT22;47998;53.242;6.386;2023-08-01T04:24:18;14.60;99.90
51579;DHT22;47998;53.242;6.386;2023-08-01T04:26:44;14.60;99.90
51579;DHT22;47998;53.242;6.386;2023-08-01T04:29:09;14.70;99.90
51579;DHT22;47998;53.242;6.386;2023-08-01T04:31:35;14.50;99.90
51579;DHT22;47998;53.242;6.386;2023-08-01T04:34:01;14.20;99.90
51579;DHT22;47998;53.242;6.386;2023-08-01T04:36:27;14.60;99.90
51579;DHT22;47998;53.242;6.386;2023-08-01T04:38:52;14.70;99.90
51579;DHT22;47998;53.242;6.386;2023-08-01T04:41:18;14.20;99.90
51579;DHT22;47998;53.242;6.386;2023-08-01T04:43:44;14.50;99.90
51579;DHT22;47998;53.242;6.386;2023-08-01T04:46:09;14.70;99.90
51579;DHT22;47998;53.242;6.386;2023-08-01T04:48:35;14.70;99.90
51579;DHT22;47998;53.242;6.386;2023-08-01T04:51:01;14.30;99.90
51579;DHT22;47998;53.242;6.386;2023-08-01T04:53:26;14.50;99.90
51579;DHT22;47998;53.242;6.386;2023-08-01T04:55:52;14.60;99.90
51579;DHT22;47998;53.242;6.386;2023-08-01T04:58:18;14.70;99.90
51579;DHT22;47998;53.242;6.386;2023-08-01T05:00:43;14.90;99.90
51579;DHT22;47998;53.242;6.386;2023-08-01T05:03:09;15.40;99.90
51579;DHT22;47998;53.242;6.386;2023-08-01T05:05:35;15.10;99.90
51579;DHT22;47998;53.242;6.386;2023-08-01T05:08:00;15.20;99.90
51579;DHT22;47998;53.242;6.386;2023-08-01T05:10:26;15.20;99.90
51579;DHT22;47998;53.242;6.386;2023-08-01T05:12:52;15.20;99.90
51579;DHT22;47998;53.242;6.386;2023-08-01T05:15:18;15.30;99.90
51579;DHT22;47998;53.242;6.386;2023-08-01T05:17:43;15.40;99.90
51579;DHT22;47998;53.242;6.386;2023-08-01T05:20:10;15.00;99.90
51579;DHT22;47998;53.242;6.386;2023-08-01T05:22:35;15.00;99.90
51579;DHT22;47998;53.242;6.386;2023-08-01T05:25:01;15.20;99.90
51579;DHT22;47998;53.242;6.386;2023-08-01T05:27:27;15.30;99.90
51579;DHT22;47998;53.242;6.386;2023-08-01T05:29:53;15.10;99.90
51579;DHT22;47998;53.242;6.386;2023-08-01T05:32:18;14.90;99.90
51579;DHT22;47998;53.242;6.386;2023-08-01T05:34:44;15.20;99.90
51579;DHT22;47998;53.242;6.386;2023-08-01T05:37:10;15.20;99.90
51579;DHT22;47998;53.242;6.386;2023-08-01T05:39:35;15.10;99.90
51579;DHT22;47998;53.242;6.386;2023-08-01T05:42:01;14.90;99.90
51579;DHT22;47998;53.242;6.386;2023-08-01T05:44:27;14.90;99.90
51579;DHT22;47998;53.242;6.386;2023-08-01T05:46:53;15.00;99.90
51579;DHT22;47998;53.242;6.386;2023-08-01T05:49:18;15.40;99.90
51579;DHT22;47998;53.242;6.386;2023-08-01T05:51:44;15.30;99.90
51579;DHT22;47998;53.242;6.386;2023-08-01T05:54:10;15.50;99.90
51579;DHT22;47998;53.242;6.386;2023-08-01T05:56:35;15.10;99.90
51579;DHT22;47998;53.242;6.386;2023-08-01T05:59:01;15.50;99.90
51579;DHT22;47998;53.242;6.386;2023-08-01T06:01:27;15.40;99.90
51579;DHT22;47998;53.242;6.386;2023-08-01T06:03:53;14.70;99.90
51579;DHT22;47998;53.242;6.386;2023-08-01T06:06:18;14.90;99.90
51579;DHT22;47998;53.242;6.386;2023-08-01T06:08:44;15.30;99.90
51579;DHT22;47998;53.242;6.386;2023-08-01T06:11:10;14.70;99.90
51579;DHT22;47998;53.242;6.386;2023-08-01T06:13:35;15.20;99.90
51579;DHT22;47998;53.242;6.386;2023-08-01T06:16:01;15.10;99.90
51579;DHT22;47998;53.242;6.386;2023-08-01T06:18:27;15.20;99.90
51579;DHT22;47998;53.242;6.386;2023-08-01T06:20:53;14.70;99.90
51579;DHT22;47998;53.242;6.386;2023-08-01T06:23:18;15.20;99.90
51579;DHT22;47998;53.242;6.386;2023-08-01T06:25:44;14.90;99.90
51579;DHT22;47998;53.242;6.386;2023-08-01T06:28:10;14.70;99.90
51579;DHT22;47998;53.242;6.386;2023-08-01T06:30:35;15.10;99.90
51579;DHT22;47998;53.242;6.386;2023-08-01T06:33:01;14.70;99.90
51579;DHT22;47998;53.242;6.386;2023-08-01T06:35:27;14.80;99.90
51579;DHT22;47998;53.242;6.386;2023-08-01T06:37:53;15.20;99.90
51579;DHT22;47998;53.242;6.386;2023-08-01T06:40:18;15.00;99.90
51579;DHT22;47998;53.242;6.386;2023-08-01T06:42:44;15.10;99.90
51579;DHT22;47998;53.242;6.386;2023-08-01T06:45:10;15.50;99.90
51579;DHT22;47998;53.242;6.386;2023-08-01T06:47:35;15.50;99.90
51579;DHT22;47998;53.242;6.386;2023-08-01T06:50:01;15.60;99.90
51579;DHT22;47998;53.242;6.386;2023-08-01T06:52:27;15.60;99.90
51579;DHT22;47998;53.242;6.386;2023-08-01T06:54:52;16.10;99.90
51579;DHT22;47998;53.242;6.386;2023-08-01T06:57:18;16.10;99.90
51579;DHT22;47998;53.242;6.386;2023-08-01T06:59:44;16.20;99.90
51579;DHT22;47998;53.242;6.386;2023-08-01T07:02:09;15.90;99.90
51579;DHT22;47998;53.242;6.386;2023-08-01T07:04:36;15.90;99.90
51579;DHT22;47998;53.242;6.386;2023-08-01T07:07:03;15.80;99.90
51579;DHT22;47998;53.242;6.386;2023-08-01T07:09:29;15.70;99.90
51579;DHT22;47998;53.242;6.386;2023-08-01T07:11:54;15.90;99.90
51579;DHT22;47998;53.242;6.386;2023-08-01T07:14:20;15.80;99.90
51579;DHT22;47998;53.242;6.386;2023-08-01T07:16:46;16.00;99.90
51579;DHT22;47998;53.242;6.386;2023-08-01T07:19:11;16.10;99.90
51579;DHT22;47998;53.242;6.386;2023-08-01T07:21:37;15.80;99.90
51579;DHT22;47998;53.242;6.386;2023-08-01T07:24:04;15.70;99.90
51579;DHT22;47998;53.242;6.386;2023-08-01T07:26:30;15.80;99.90
51579;DHT22;47998;53.242;6.386;2023-08-01T07:28:56;15.50;99.90
51579;DHT22;47998;53.242;6.386;2023-08-01T07:31:21;15.60;99.90
51579;DHT22;47998;53.242;6.386;2023-08-01T07:33:47;15.50;99.90
51579;DHT22;47998;53.242;6.386;2023-08-01T07:36:13;15.50;99.90
51579;DHT22;47998;53.242;6.386;2023-08-01T07:38:38;15.70;99.90
51579;DHT22;47998;53.242;6.386;2023-08-01T07:41:05;15.80;99.90
51579;DHT22;47998;53.242;6.386;2023-08-01T07:43:32;15.80;99.90
51579;DHT22;47998;53.242;6.386;2023-08-01T07:45:59;15.90;99.90
51579;DHT22;47998;53.242;6.386;2023-08-01T07:48:25;16.10;99.90
51579;DHT22;47998;53.242;6.386;2023-08-01T07:50:51;16.80;99.90
51579;DHT22;47998;53.242;6.386;2023-08-01T07:53:17;16.90;99.90
51579;DHT22;47998;53.242;6.386;2023-08-01T07:55:43;17.20;99.90
51579;DHT22;47998;53.242;6.386;2023-08-01T07:58:08;17.50;99.90
51579;DHT22;47998;53.242;6.386;2023-08-01T08:00:35;17.40;99.90
51579;DHT22;47998;53.242;6.386;2023-08-01T08:03:01;17.30;99.90
51579;DHT22;47998;53.242;6.386;2023-08-01T08:05:27;16.90;99.90
51579;DHT22;47998;53.242;6.386;2023-08-01T08:07:53;16.90;99.90
51579;DHT22;47998;53.242;6.386;2023-08-01T08:10:18;16.80;99.90
51579;DHT22;47998;53.242;6.386;2023-08-01T08:12:44;16.90;99.90
51579;DHT22;47998;53.242;6.386;2023-08-01T08:15:10;17.00;99.90
51579;DHT22;47998;53.242;6.386;2023-08-01T08:17:36;16.80;99.90
51579;DHT22;47998;53.242;6.386;2023-08-01T08:20:03;16.50;99.90
51579;DHT22;47998;53.242;6.386;2023-08-01T08:22:29;16.00;99.90
51579;DHT22;47998;53.242;6.386;2023-08-01T08:24:54;15.70;99.90
51579;DHT22;47998;53.242;6.386;2023-08-01T08:27:20;15.50;99.90
51579;DHT22;47998;53.242;6.386;2023-08-01T08:29:46;15.30;99.90
51579;DHT22;47998;53.242;6.386;2023-08-01T08:32:12;15.10;99.90
51579;DHT22;47998;53.242;6.386;2023-08-01T08:34:37;14.90;99.90
51579;DHT22;47998;53.242;6.386;2023-08-01T08:37:05;15.10;99.90
51579;DHT22;47998;53.242;6.386;2023-08-01T08:39:31;15.10;99.90
51579;DHT22;47998;53.242;6.386;2023-08-01T08:41:56;14.90;99.90
51579;DHT22;47998;53.242;6.386;2023-08-01T08:44:23;15.00;99.90
51579;DHT22;47998;53.242;6.386;2023-08-01T08:46:59;15.10;99.90
51579;DHT22;47998;53.242;6.386;2023-08-01T08:49:27;15.60;99.90
51579;DHT22;47998;53.242;6.386;2023-08-01T08:51:54;15.60;99.90
51579;DHT22;47998;53.242;6.386;2023-08-01T08:54:20;15.90;99.90
51579;DHT22;47998;53.242;6.386;2023-08-01T08:56:46;16.40;99.90
51579;DHT22;47998;53.242;6.386;2023-08-01T08:59:13;17.40;99.90
51579;DHT22;47998;53.242;6.386;2023-08-01T09:01:39;17.70;99.90
51579;DHT22;47998;53.242;6.386;2023-08-01T09:04:05;17.40;99.90
51579;DHT22;47998;53.242;6.386;2023-08-01T09:06:40;17.20;99.90
51579;DHT22;47998;53.242;6.386;2023-08-01T09:09:11;17.10;99.90
51579;DHT22;47998;53.242;6.386;2023-08-01T09:11:51;17.00;99.90
51579;DHT22;47998;53.242;6.386;2023-08-01T09:14:18;17.00;99.90
51579;DHT22;47998;53.242;6.386;2023-08-01T09:16:45;17.20;99.90
51579;DHT22;47998;53.242;6.386;2023-08-01T09:19:19;17.10;99.90
51579;DHT22;47998;53.242;6.386;2023-08-01T09:21:46;17.20;99.90
51579;DHT22;47998;53.242;6.386;2023-08-01T09:24:14;17.20;99.90
51579;DHT22;47998;53.242;6.386;2023-08-01T09:26:41;16.90;99.90
51579;DHT22;47998;53.242;6.386;2023-08-01T09:29:07;16.90;99.90
51579;DHT22;47998;53.242;6.386;2023-08-01T09:31:35;16.70;99.90
51579;DHT22;47998;53.242;6.386;2023-08-01T09:34:03;16.50;99.90
51579;DHT22;47998;53.242;6.386;2023-08-01T09:36:32;16.40;99.90
51579;DHT22;47998;53.242;6.386;2023-08-01T09:38:59;16.60;99.90
51579;DHT22;47998;53.242;6.386;2023-08-01T09:41:26;16.70;99.90
51579;DHT22;47998;53.242;6.386;2023-08-01T09:43:51;17.00;99.90
51579;DHT22;47998;53.242;6.386;2023-08-01T09:46:17;17.70;99.90
51579;DHT22;47998;53.242;6.386;2023-08-01T09:48:44;18.30;99.90
51579;DHT22;47998;53.242;6.386;2023-08-01T09:51:11;18.30;89.70
51579;DHT22;47998;53.242;6.386;2023-08-01T09:53:49;17.80;99.90
51579;DHT22;47998;53.242;6.386;2023-08-01T09:56:21;17.60;99.90
51579;DHT22;47998;53.242;6.386;2023-08-01T09:58:48;17.40;99.90
51579;DHT22;47998;53.242;6.386;2023-08-01T10:01:16;18.10;99.90
51579;DHT22;47998;53.242;6.386;2023-08-01T10:03:50;18.50;99.90
51579;DHT22;47998;53.242;6.386;2023-08-01T10:06:20;18.40;1.00
51579;DHT22;47998;53.242;6.386;2023-08-01T10:08:47;18.40;99.90
51579;DHT22;47998;53.242;6.386;2023-08-01T10:11:23;18.10;99.90
51579;DHT22;47998;53.242;6.386;2023-08-01T10:13:49;17.50;99.90
51579;DHT22;47998;53.242;6.386;2023-08-01T10:16:15;17.20;99.90
51579;DHT22;47998;53.242;6.386;2023-08-01T10:18:42;17.30;99.90
51579;DHT22;47998;53.242;6.386;2023-08-01T10:21:16;17.30;99.90
51579;DHT22;47998;53.242;6.386;2023-08-01T10:23:44;17.20;99.90
51579;DHT22;47998;53.242;6.386;2023-08-01T10:26:11;17.40;99.90
51579;DHT22;47998;53.242;6.386;2023-08-01T10:28:39;18.00;99.90
51579;DHT22;47998;53.242;6.386;2023-08-01T10:31:16;18.60;97.40
51579;DHT22;47998;53.242;6.386;2023-08-01T10:33:47;18.90;84.70
51579;DHT22;47998;53.242;6.386;2023-08-01T10:36:23;19.00;99.90
51579;DHT22;47998;53.242;6.386;2023-08-01T10:38:58;19.20;99.90
51579;DHT22;47998;53.242;6.386;2023-08-01T10:41:34;19.10;99.90
51579;DHT22;47998;53.242;6.386;2023-08-01T10:44:10;18.80;1.00
51579;DHT22;47998;53.242;6.386;2023-08-01T10:47:00;18.40;99.90
51579;DHT22;47998;53.242;6.386;2023-08-01T10:49:38;17.80;1.00
51579;DHT22;47998;53.242;6.386;2023-08-01T10:52:25;17.80;78.40
51579;DHT22;47998;53.242;6.386;2023-08-01T10:54:59;18.20;1.00
51579;DHT22;47998;53.242;6.386;2023-08-01T10:57:26;18.80;72.10
51579;DHT22;47998;53.242;6.386;2023-08-01T10:59:55;18.90;99.90
51579;DHT22;47998;53.242;6.386;2023-08-01T11:02:23;18.70;99.90
51579;DHT22;47998;53.242;6.386;2023-08-01T11:04:59;18.90;99.90
51579;DHT22;47998;53.242;6.386;2023-08-01T11:07:25;19.00;1.00
51579;DHT22;47998;53.242;6.386;2023-08-01T11:10:09;18.70;99.90
51579;DHT22;47998;53.242;6.386;2023-08-01T11:12:39;18.50;1.00
51579;DHT22;47998;53.242;6.386;2023-08-01T11:15:06;19.10;99.90
51579;DHT22;47998;53.242;6.386;2023-08-01T11:17:37;19.60;1.00
51579;DHT22;47998;53.242;6.386;2023-08-01T11:20:08;19.70;99.90
51579;DHT22;47998;53.242;6.386;2023-08-01T11:22:35;19.30;99.90
51579;DHT22;47998;53.242;6.386;2023-08-01T11:25:01;19.00;1.00
51579;DHT22;47998;53.242;6.386;2023-08-01T11:27:28;18.80;99.90
51579;DHT22;47998;53.242;6.386;2023-08-01T11:29:54;19.20;59.10
51579;DHT22;47998;53.242;6.386;2023-08-01T11:32:21;19.70;1.00
51579;DHT22;47998;53.242;6.386;2023-08-01T11:34:47;20.00;1.00
51579;DHT22;47998;53.242;6.386;2023-08-01T11:37:15;19.40;99.90
51579;DHT22;47998;53.242;6.386;2023-08-01T11:39:41;19.10;99.90
51579;DHT22;47998;53.242;6.386;2023-08-01T11:42:07;18.90;99.90
51579;DHT22;47998;53.242;6.386;2023-08-01T11:44:32;18.70;1.00
51579;DHT22;47998;53.242;6.386;2023-08-01T11:46:58;18.60;1.00
51579;DHT22;47998;53.242;6.386;2023-08-01T11:49:24;18.70;1.00
51579;DHT22;47998;53.242;6.386;2023-08-01T11:51:51;18.70;99.90
51579;DHT22;47998;53.242;6.386;2023-08-01T11:54:17;18.70;1.00
51579;DHT22;47998;53.242;6.386;2023-08-01T11:56:43;18.50;1.00
51579;DHT22;47998;53.242;6.386;2023-08-01T11:59:16;18.20;1.00
51579;DHT22;47998;53.242;6.386;2023-08-01T12:01:46;18.30;99.90
51579;DHT22;47998;53.242;6.386;2023-08-01T12:04:23;18.60;99.90
51579;DHT22;47998;53.242;6.386;2023-08-01T12:06:49;19.00;99.90
51579;DHT22;47998;53.242;6.386;2023-08-01T12:09:15;19.60;13.40
51579;DHT22;47998;53.242;6.386;2023-08-01T12:11:41;19.60;1.00
51579;DHT22;47998;53.242;6.386;2023-08-01T12:14:14;19.40;99.90
51579;DHT22;47998;53.242;6.386;2023-08-01T12:16:40;19.40;1.00
51579;DHT22;47998;53.242;6.386;2023-08-01T12:19:08;19.60;59.20
51579;DHT22;47998;53.242;6.386;2023-08-01T12:21:34;19.40;20.70
51579;DHT22;47998;53.242;6.386;2023-08-01T12:24:01;19.80;99.90
51579;DHT22;47998;53.242;6.386;2023-08-01T12:26:27;19.80;99.90
51579;DHT22;47998;53.242;6.386;2023-08-01T12:28:53;19.50;99.90
51579;DHT22;47998;53.242;6.386;2023-08-01T12:31:20;19.10;99.90
51579;DHT22;47998;53.242;6.386;2023-08-01T12:33:46;19.30;99.90
51579;DHT22;47998;53.242;6.386;2023-08-01T12:36:13;19.20;1.00
51579;DHT22;47998;53.242;6.386;2023-08-01T12:38:39;19.40;99.90
51579;DHT22;47998;53.242;6.386;2023-08-01T12:41:05;19.40;99.90
51579;DHT22;47998;53.242;6.386;2023-08-01T12:43:31;19.30;1.00
51579;DHT22;47998;53.242;6.386;2023-08-01T12:45:56;19.50;1.00
51579;DHT22;47998;53.242;6.386;2023-08-01T12:48:24;19.90;96.60
51579;DHT22;47998;53.242;6.386;2023-08-01T12:50:50;19.50;1.00
51579;DHT22;47998;53.242;6.386;2023-08-01T12:53:16;19.10;99.90
51579;DHT22;47998;53.242;6.386;2023-08-01T12:55:47;18.90;99.90
51579;DHT22;47998;53.242;6.386;2023-08-01T12:58:14;18.60;99.90
51579;DHT22;47998;53.242;6.386;2023-08-01T13:00:41;18.40;99.90
51579;DHT22;47998;53.242;6.386;2023-08-01T13:03:07;18.20;1.00
51579;DHT22;47998;53.242;6.386;2023-08-01T13:05:37;18.00;99.90
51579;DHT22;47998;53.242;6.386;2023-08-01T13:08:04;18.00;1.00
51579;DHT22;47998;53.242;6.386;2023-08-01T13:10:34;18.30;1.00
51579;DHT22;47998;53.242;6.386;2023-08-01T13:13:00;19.10;27.10
51579;DHT22;47998;53.242;6.386;2023-08-01T13:15:26;19.80;1.00
51579;DHT22;47998;53.242;6.386;2023-08-01T13:17:52;20.30;1.00
51579;DHT22;47998;53.242;6.386;2023-08-01T13:20:18;20.30;99.90
51579;DHT22;47998;53.242;6.386;2023-08-01T13:22:50;20.30;99.90
51579;DHT22;47998;53.242;6.386;2023-08-01T13:25:16;20.20;99.90
51579;DHT22;47998;53.242;6.386;2023-08-01T13:27:43;20.30;99.90
51579;DHT22;47998;53.242;6.386;2023-08-01T13:30:09;20.30;1.00
51579;DHT22;47998;53.242;6.386;2023-08-01T13:32:35;20.30;1.00
51579;DHT22;47998;53.242;6.386;2023-08-01T13:35:01;19.80;1.00
51579;DHT22;47998;53.242;6.386;2023-08-01T13:37:27;19.30;99.90
51579;DHT22;47998;53.242;6.386;2023-08-01T13:39:56;19.30;99.90
51579;DHT22;47998;53.242;6.386;2023-08-01T13:42:21;18.90;99.90
51579;DHT22;47998;53.242;6.386;2023-08-01T13:44:47;16.80;99.90
51579;DHT22;47998;53.242;6.386;2023-08-01T13:47:13;15.60;99.90
51579;DHT22;47998;53.242;6.386;2023-08-01T13:49:39;16.10;99.90
51579;DHT22;47998;53.242;6.386;2023-08-01T13:52:05;16.70;99.90
51579;DHT22;47998;53.242;6.386;2023-08-01T13:54:31;16.20;99.90
51579;DHT22;47998;53.242;6.386;2023-08-01T13:56:56;17.00;99.90
51579;DHT22;47998;53.242;6.386;2023-08-01T13:59:23;16.10;99.90
51579;DHT22;47998;53.242;6.386;2023-08-01T14:01:49;16.40;99.90
51579;DHT22;47998;53.242;6.386;2023-08-01T14:04:14;17.00;99.90
51579;DHT22;47998;53.242;6.386;2023-08-01T14:06:41;17.00;99.90
51579;DHT22;47998;53.242;6.386;2023-08-01T14:09:09;17.50;99.90
51579;DHT22;47998;53.242;6.386;2023-08-01T14:11:36;17.10;99.90
51579;DHT22;47998;53.242;6.386;2023-08-01T14:14:02;16.90;99.90
51579;DHT22;47998;53.242;6.386;2023-08-01T14:16:28;17.10;99.90
51579;DHT22;47998;53.242;6.386;2023-08-01T14:18:54;17.90;99.90
51579;DHT22;47998;53.242;6.386;2023-08-01T14:21:20;18.00;99.90
51579;DHT22;47998;53.242;6.386;2023-08-01T14:23:46;17.80;99.90
51579;DHT22;47998;53.242;6.386;2023-08-01T14:26:12;17.20;65.70
51579;DHT22;47998;53.242;6.386;2023-08-01T14:28:37;16.10;99.90
51579;DHT22;47998;53.242;6.386;2023-08-01T14:31:04;15.10;99.90
51579;DHT22;47998;53.242;6.386;2023-08-01T14:33:30;16.00;99.90
51579;DHT22;47998;53.242;6.386;2023-08-01T14:35:56;15.30;99.90
51579;DHT22;47998;53.242;6.386;2023-08-01T14:38:22;15.50;99.90
51579;DHT22;47998;53.242;6.386;2023-08-01T14:40:48;16.20;99.90
51579;DHT22;47998;53.242;6.386;2023-08-01T14:43:14;16.70;99.90
51579;DHT22;47998;53.242;6.386;2023-08-01T14:45:40;16.90;99.90
51579;DHT22;47998;53.242;6.386;2023-08-01T14:48:07;17.20;99.90
51579;DHT22;47998;53.242;6.386;2023-08-01T14:50:33;17.30;99.90
51579;DHT22;47998;53.242;6.386;2023-08-01T14:53:00;17.40;99.90
51579;DHT22;47998;53.242;6.386;2023-08-01T14:55:27;17.50;99.90
51579;DHT22;47998;53.242;6.386;2023-08-01T14:57:53;17.70;99.90
51579;DHT22;47998;53.242;6.386;2023-08-01T15:00:19;18.00;99.90
51579;DHT22;47998;53.242;6.386;2023-08-01T15:02:44;18.40;1.00
51579;DHT22;47998;53.242;6.386;2023-08-01T15:05:12;18.30;99.90
51579;DHT22;47998;53.242;6.386;2023-08-01T15:07:38;18.40;1.00
51579;DHT22;47998;53.242;6.386;2023-08-01T15:10:04;18.40;1.00
51579;DHT22;47998;53.242;6.386;2023-08-01T15:12:29;18.60;1.00
51579;DHT22;47998;53.242;6.386;2023-08-01T15:14:56;18.30;99.90
51579;DHT22;47998;53.242;6.386;2023-08-01T15:17:22;18.10;99.90
51579;DHT22;47998;53.242;6.386;2023-08-01T15:19:48;18.00;1.00
51579;DHT22;47998;53.242;6.386;2023-08-01T15:22:18;18.20;1.00
51579;DHT22;47998;53.242;6.386;2023-08-01T15:24:45;18.30;1.00
51579;DHT22;47998;53.242;6.386;2023-08-01T15:27:11;18.70;99.90
51579;DHT22;47998;53.242;6.386;2023-08-01T15:29:37;18.80;1.00
51579;DHT22;47998;53.242;6.386;2023-08-01T15:32:04;19.00;99.90